Terminal Aerodrome Forecast
Issued by NWS

Home | Current Version | Previous Version | Text Only | Print | Product List | Glossary Off
Versions: 1 2 3 4 5 6 7 8 9 10 11 12 13 14 15 16 17 18 19

000
FTUS43 KFGF 260520
TAFBJI
TAF
KBJI 260520Z 2606/2706 02013KT 5SM -FZRAPL OVC008
     FM261000 02012KT 2SM -SN OVC008
     FM261300 02013KT 1SM -SN OVC008
     FM262100 02012KT P6SM OVC008
     FM270000 02010G18KT P6SM OVC010=

USA.gov is the U.S. government's official web portal to all federal, state and local government web resources and services.